Time,TemperatureF,DewpointF,PressureIn,WindDirection,WindDirectionDegrees,WindSpeedMPH,WindSpeedGustMPH,Humidity,HourlyPrecipIn,Conditions,Clouds,dailyrainin,SolarRadiationWatts/m^2,SoftwareType,DateUTC
2013-03-20 00:02:00,13.0,10.0,-100.00,WNW,289,8.0,23.0,87,0.00,,,0.00,1.000000,,2013-03-20 05:02:00,
2013-03-20 00:33:00,13.0,10.0,-100.00,WNW,289,8.0,23.0,87,0.00,,,0.00,1.000000,,2013-03-20 05:33:00,
2013-03-20 00:43:00,13.0,10.0,-100.00,WNW,289,8.0,23.0,87,0.00,,,0.00,1.000000,,2013-03-20 05:43:00,
2013-03-20 00:53:00,13.0,10.0,-100.00,WNW,289,8.0,23.0,87,0.00,,,0.00,1.000000,,2013-03-20 05:53:00,
2013-03-20 01:02:00,12.0,10.0,-100.00,West,280,8.0,16.0,90,0.00,,,-99.99,1.000000,,2013-03-20 06:02:00,
2013-03-20 01:32:00,12.0,10.0,-100.00,West,280,8.0,16.0,90,0.00,,,-99.99,1.000000,,2013-03-20 06:32:00,
2013-03-20 01:43:00,12.0,10.0,-100.00,West,280,8.0,16.0,90,0.00,,,-99.99,1.000000,,2013-03-20 06:43:00,
2013-03-20 01:53:00,12.0,10.0,-100.00,West,280,8.0,16.0,90,0.00,,,-99.99,1.000000,,2013-03-20 06:53:00,
2013-03-20 02:02:00,10.0,8.0,-100.00,West,274,7.0,17.0,91,0.00,,,0.00,1.000000,,2013-03-20 07:02:00,
2013-03-20 02:22:00,10.0,8.0,-100.00,West,274,7.0,17.0,91,0.00,,,0.00,1.000000,,2013-03-20 07:22:00,
2013-03-20 02:32:00,10.0,8.0,-100.00,West,274,7.0,17.0,91,0.00,,,0.00,1.000000,,2013-03-20 07:32:00,
2013-03-20 02:42:00,10.0,8.0,-100.00,West,274,7.0,17.0,91,0.00,,,0.00,1.000000,,2013-03-20 07:42:00,
2013-03-20 02:52:00,10.0,8.0,-100.00,West,274,7.0,17.0,91,0.00,,,0.00,1.000000,,2013-03-20 07:52:00,
2013-03-20 03:02:00,9.0,7.0,-100.00,WNW,282,9.0,15.0,90,0.00,,,0.00,1.000000,,2013-03-20 08:02:00,
2013-03-20 03:32:00,9.0,7.0,-100.00,WNW,282,9.0,15.0,90,0.00,,,0.00,1.000000,,2013-03-20 08:32:00,
2013-03-20 03:42:00,9.0,7.0,-100.00,WNW,282,9.0,15.0,90,0.00,,,0.00,1.000000,,2013-03-20 08:42:00,
2013-03-20 03:52:00,9.0,7.0,-100.00,WNW,282,9.0,15.0,90,0.00,,,0.00,1.000000,,2013-03-20 08:52:00,
2013-03-20 04:02:00,7.0,4.0,-100.00,West,277,9.0,22.0,87,0.00,,,0.00,1.000000,,2013-03-20 09:02:00,
2013-03-20 04:33:00,7.0,4.0,-100.00,West,277,9.0,22.0,87,0.00,,,0.00,1.000000,,2013-03-20 09:33:00,
2013-03-20 04:43:00,7.0,4.0,-100.00,West,277,9.0,22.0,87,0.00,,,0.00,1.000000,,2013-03-20 09:43:00,
2013-03-20 04:53:00,7.0,4.0,-100.00,West,277,9.0,22.0,87,0.00,,,0.00,1.000000,,2013-03-20 09:53:00,
2013-03-20 05:02:00,5.0,2.0,-100.00,West,278,8.0,20.0,88,0.00,,,0.00,1.000000,,2013-03-20 10:02:00,
2013-03-20 05:33:00,5.0,2.0,-100.00,West,278,8.0,20.0,88,0.00,,,0.00,1.000000,,2013-03-20 10:33:00,
2013-03-20 05:43:00,5.0,2.0,-100.00,West,278,8.0,20.0,88,0.00,,,0.00,1.000000,,2013-03-20 10:43:00,
2013-03-20 05:53:00,5.0,2.0,-100.00,West,278,8.0,20.0,88,0.00,,,0.00,1.000000,,2013-03-20 10:53:00,
2013-03-20 06:02:00,4.0,1.0,-100.00,West,277,7.0,15.0,89,0.00,,,0.00,1.000000,,2013-03-20 11:02:00,
2013-03-20 06:32:00,4.0,1.0,-100.00,West,277,7.0,15.0,89,0.00,,,0.00,1.000000,,2013-03-20 11:32:00,
2013-03-20 06:42:00,4.0,1.0,-100.00,West,277,7.0,15.0,89,0.00,,,0.00,1.000000,,2013-03-20 11:42:00,
2013-03-20 06:52:00,4.0,1.0,-100.00,West,277,7.0,15.0,89,0.00,,,0.00,1.000000,,2013-03-20 11:52:00,
2013-03-20 07:02:00,2.0,0.0,-100.00,West,272,7.0,16.0,91,0.00,,,0.00,1.000000,,2013-03-20 12:02:00,
2013-03-20 07:33:00,2.0,0.0,-100.00,West,272,7.0,16.0,91,0.00,,,0.00,1.000000,,2013-03-20 12:33:00,
2013-03-20 07:43:00,2.0,0.0,-100.00,West,272,7.0,16.0,91,0.00,,,0.00,1.000000,,2013-03-20 12:43:00,
2013-03-20 07:52:00,2.0,0.0,-100.00,West,272,7.0,16.0,91,0.00,,,0.00,1.000000,,2013-03-20 12:52:00,
2013-03-20 08:02:00,3.0,1.0,-100.00,West,264,7.0,15.0,91,0.00,,,0.00,29.000000,,2013-03-20 13:02:00,
2013-03-20 08:32:00,3.0,1.0,-100.00,West,264,7.0,15.0,91,0.00,,,0.00,29.000000,,2013-03-20 13:32:00,
2013-03-20 08:43:00,3.0,1.0,-100.00,West,264,7.0,15.0,91,0.00,,,0.00,29.000000,,2013-03-20 13:43:00,
2013-03-20 08:53:00,3.0,1.0,-100.00,West,264,7.0,15.0,91,0.00,,,0.00,29.000000,,2013-03-20 13:53:00,
2013-03-20 09:02:00,8.0,3.0,-100.00,West,280,7.0,14.0,81,0.00,,,0.00,200.000000,,2013-03-20 14:02:00,
2013-03-20 09:23:00,8.0,3.0,-100.00,West,280,7.0,14.0,81,0.00,,,0.00,200.000000,,2013-03-20 14:23:00,
2013-03-20 09:34:00,8.0,3.0,-100.00,West,280,7.0,14.0,81,0.00,,,0.00,200.000000,,2013-03-20 14:34:00,
2013-03-20 09:43:00,8.0,3.0,-100.00,West,280,7.0,14.0,81,0.00,,,0.00,200.000000,,2013-03-20 14:43:00,
2013-03-20 09:52:00,8.0,3.0,-100.00,West,280,7.0,14.0,81,0.00,,,0.00,200.000000,,2013-03-20 14:52:00,
2013-03-20 10:02:00,13.0,5.0,-100.00,WNW,283,7.0,17.0,71,0.00,,,0.00,354.000000,,2013-03-20 15:02:00,
2013-03-20 10:33:00,13.0,5.0,-100.00,WNW,283,7.0,17.0,71,0.00,,,0.00,354.000000,,2013-03-20 15:33:00,
2013-03-20 10:43:00,13.0,5.0,-100.00,WNW,283,7.0,17.0,71,0.00,,,0.00,354.000000,,2013-03-20 15:43:00,
2013-03-20 10:53:00,13.0,5.0,-100.00,WNW,283,7.0,17.0,71,0.00,,,0.00,354.000000,,2013-03-20 15:53:00,
2013-03-20 11:02:00,16.0,7.0,-100.00,WNW,295,6.0,18.0,67,0.00,,,0.00,379.000000,,2013-03-20 16:02:00,
2013-03-20 11:23:00,16.0,7.0,-100.00,WNW,295,6.0,18.0,67,0.00,,,0.00,379.000000,,2013-03-20 16:23:00,
2013-03-20 11:33:00,16.0,7.0,-100.00,WNW,295,6.0,18.0,67,0.00,,,0.00,379.000000,,2013-03-20 16:33:00,
2013-03-20 11:43:00,16.0,7.0,-100.00,WNW,295,6.0,18.0,67,0.00,,,0.00,379.000000,,2013-03-20 16:43:00,
2013-03-20 11:53:00,16.0,7.0,-100.00,WNW,295,6.0,18.0,67,0.00,,,0.00,379.000000,,2013-03-20 16:53:00,
2013-03-20 12:02:00,18.0,8.0,-100.00,NW,305,7.0,15.0,63,0.00,,,0.00,466.000000,,2013-03-20 17:02:00,
2013-03-20 12:33:00,18.0,8.0,-100.00,NW,305,7.0,15.0,63,0.00,,,0.00,466.000000,,2013-03-20 17:33:00,
2013-03-20 12:42:00,18.0,8.0,-100.00,NW,305,7.0,15.0,63,0.00,,,0.00,466.000000,,2013-03-20 17:42:00,
2013-03-20 12:53:00,18.0,8.0,-100.00,NW,305,7.0,15.0,63,0.00,,,0.00,466.000000,,2013-03-20 17:53:00,
2013-03-20 13:02:00,18.0,9.0,-100.00,NW,320,8.0,19.0,66,0.00,,,0.00,442.000000,,2013-03-20 18:02:00,
2013-03-20 13:34:00,18.0,9.0,-100.00,NW,320,8.0,19.0,66,0.00,,,0.00,442.000000,,2013-03-20 18:34:00,
2013-03-20 13:43:00,18.0,9.0,-100.00,NW,320,8.0,19.0,66,0.00,,,0.00,442.000000,,2013-03-20 18:43:00,
2013-03-20 13:53:00,18.0,9.0,-100.00,NW,320,8.0,19.0,66,0.00,,,0.00,442.000000,,2013-03-20 18:53:00,
2013-03-20 14:02:00,20.0,8.0,-100.00,NNW,337,8.0,17.0,59,0.00,,,0.00,410.000000,,2013-03-20 19:02:00,
2013-03-20 14:33:00,20.0,8.0,-100.00,NNW,337,8.0,17.0,59,0.00,,,0.00,410.000000,,2013-03-20 19:33:00,
2013-03-20 14:42:00,20.0,8.0,-100.00,NNW,337,8.0,17.0,59,0.00,,,0.00,410.000000,,2013-03-20 19:42:00,
2013-03-20 14:53:00,20.0,8.0,-100.00,NNW,337,8.0,17.0,59,0.00,,,0.00,410.000000,,2013-03-20 19:53:00,
2013-03-20 16:02:00,19.0,9.0,-100.00,NW,313,6.0,17.0,63,-99.99,,,0.00,368.000000,,2013-03-20 21:02:00,
2013-03-20 16:33:00,19.0,9.0,-100.00,NW,313,6.0,17.0,63,-99.99,,,0.00,368.000000,,2013-03-20 21:33:00,
2013-03-20 16:42:00,19.0,9.0,-100.00,NW,313,6.0,17.0,63,-99.99,,,0.00,368.000000,,2013-03-20 21:42:00,
2013-03-20 16:53:00,19.0,9.0,-100.00,NW,313,6.0,17.0,63,-99.99,,,0.00,368.000000,,2013-03-20 21:53:00,
2013-03-20 17:02:00,18.0,8.0,-100.00,NNW,329,7.0,16.0,64,0.00,,,0.00,263.000000,,2013-03-20 22:02:00,
2013-03-20 17:33:00,18.0,8.0,-100.00,NNW,329,7.0,16.0,64,0.00,,,0.00,263.000000,,2013-03-20 22:33:00,
2013-03-20 17:43:00,18.0,8.0,-100.00,NNW,329,7.0,16.0,64,0.00,,,0.00,263.000000,,2013-03-20 22:43:00,
2013-03-20 17:53:00,18.0,8.0,-100.00,NNW,329,7.0,16.0,64,0.00,,,0.00,263.000000,,2013-03-20 22:53:00,
2013-03-20 18:02:00,15.0,8.0,-100.00,NW,316,7.0,19.0,72,0.00,,,0.00,98.000000,,2013-03-20 23:02:00,
2013-03-20 18:23:00,15.0,8.0,-100.00,NW,316,7.0,19.0,72,0.00,,,0.00,98.000000,,2013-03-20 23:23:00,
2013-03-20 18:33:00,15.0,8.0,-100.00,NW,316,7.0,19.0,72,0.00,,,0.00,98.000000,,2013-03-20 23:33:00,
2013-03-20 18:43:00,15.0,8.0,-100.00,NW,316,7.0,19.0,72,0.00,,,0.00,98.000000,,2013-03-20 23:43:00,
2013-03-20 18:53:00,15.0,8.0,-100.00,NW,316,7.0,19.0,72,0.00,,,0.00,98.000000,,2013-03-20 23:53:00,
2013-03-20 19:02:00,14.0,8.0,-100.00,NNW,329,7.0,19.0,77,0.00,,,0.00,27.000000,,2013-03-21 00:02:00,
2013-03-20 19:33:00,14.0,8.0,-100.00,NNW,329,7.0,19.0,77,0.00,,,0.00,27.000000,,2013-03-21 00:33:00,
2013-03-20 19:42:00,14.0,8.0,-100.00,NNW,329,7.0,19.0,77,0.00,,,0.00,27.000000,,2013-03-21 00:42:00,
2013-03-20 19:52:00,14.0,8.0,-100.00,NNW,329,7.0,19.0,77,0.00,,,0.00,27.000000,,2013-03-21 00:52:00,
2013-03-20 20:02:00,13.0,8.0,-100.00,NW,309,5.0,18.0,81,0.00,,,0.00,1.000000,,2013-03-21 01:02:00,
2013-03-20 20:33:00,13.0,8.0,-100.00,NW,309,5.0,18.0,81,0.00,,,0.00,1.000000,,2013-03-21 01:33:00,
2013-03-20 20:42:00,13.0,8.0,-100.00,NW,309,5.0,18.0,81,0.00,,,0.00,1.000000,,2013-03-21 01:42:00,
2013-03-20 20:53:00,13.0,8.0,-100.00,NW,309,5.0,18.0,81,0.00,,,0.00,1.000000,,2013-03-21 01:53:00,
2013-03-20 21:02:00,12.0,8.0,-100.00,NW,313,5.0,14.0,85,0.00,,,0.00,1.000000,,2013-03-21 02:02:00,
2013-03-20 21:33:00,12.0,8.0,-100.00,NW,313,5.0,14.0,85,0.00,,,0.00,1.000000,,2013-03-21 02:33:00,
2013-03-20 21:42:00,12.0,8.0,-100.00,NW,313,5.0,14.0,85,0.00,,,0.00,1.000000,,2013-03-21 02:42:00,
2013-03-20 21:52:00,12.0,8.0,-100.00,NW,313,5.0,14.0,85,0.00,,,0.00,1.000000,,2013-03-21 02:52:00,
2013-03-20 22:02:00,12.0,9.0,-100.00,NW,309,6.0,13.0,87,0.00,,,0.00,1.000000,,2013-03-21 03:02:00,
2013-03-20 22:33:00,12.0,9.0,-100.00,NW,309,6.0,13.0,87,0.00,,,0.00,1.000000,,2013-03-21 03:33:00,
2013-03-20 22:43:00,12.0,9.0,-100.00,NW,309,6.0,13.0,87,0.00,,,0.00,1.000000,,2013-03-21 03:43:00,
2013-03-20 22:53:00,12.0,9.0,-100.00,NW,309,6.0,13.0,87,0.00,,,0.00,1.000000,,2013-03-21 03:53:00,
2013-03-20 23:02:00,13.0,10.0,-100.00,NW,318,4.0,12.0,88,0.00,,,0.00,1.000000,,2013-03-21 04:02:00,
2013-03-20 23:23:00,13.0,10.0,-100.00,NW,318,4.0,12.0,88,0.00,,,0.00,1.000000,,2013-03-21 04:23:00,
2013-03-20 23:33:00,13.0,10.0,-100.00,NW,318,4.0,12.0,88,0.00,,,0.00,1.000000,,2013-03-21 04:33:00,
2013-03-20 23:43:00,13.0,10.0,-100.00,NW,318,4.0,12.0,88,0.00,,,0.00,1.000000,,2013-03-21 04:43:00,
2013-03-20 23:53:00,13.0,10.0,-100.00,NW,318,4.0,12.0,88,0.00,,,0.00,1.000000,,2013-03-21 04:53:00,